createdAt,value
2024-02-19T00:00:07.190Z,0.56
2024-02-19T00:01:07.329Z,0.55
2024-02-19T00:02:07.223Z,0.56
2024-02-19T00:03:07.212Z,0.56
2024-02-19T00:04:07.357Z,0.56
2024-02-19T00:05:07.304Z,0.56
2024-02-19T00:06:07.299Z,0.55
2024-02-19T00:07:07.367Z,0.56
2024-02-19T00:08:07.490Z,0.55
2024-02-19T00:09:07.370Z,0.56
2024-02-19T00:10:07.445Z,0.55
2024-02-19T00:11:07.399Z,0.56
2024-02-19T00:12:07.429Z,0.56
2024-02-19T00:13:07.454Z,0.56
2024-02-19T00:14:07.452Z,0.57
2024-02-19T00:15:07.497Z,0.56
2024-02-19T00:16:07.573Z,0.55
2024-02-19T00:17:07.613Z,0.55
2024-02-19T00:18:07.661Z,0.56
2024-02-19T00:19:07.669Z,0.56
2024-02-19T00:20:07.730Z,0.56
2024-02-19T00:21:07.613Z,0.55
2024-02-19T00:22:07.713Z,0.56
2024-02-19T00:23:07.725Z,0.55
2024-02-19T00:24:07.717Z,0.55
2024-02-19T00:25:07.741Z,0.55
2024-02-19T00:26:07.785Z,0.56
2024-02-19T00:27:07.862Z,0.56
2024-02-19T00:28:07.833Z,0.56
2024-02-19T00:29:07.855Z,0.55
2024-02-19T00:30:07.866Z,0.56
2024-02-19T00:31:07.928Z,0.54
2024-02-19T00:32:07.921Z,0.55
2024-02-19T00:33:08.132Z,0.56
2024-02-19T00:34:08.079Z,0.56
2024-02-19T00:35:08.010Z,0.56
2024-02-19T00:36:08.028Z,0.54
2024-02-19T00:37:08.782Z,0.56
2024-02-19T00:38:08.083Z,0.56
2024-02-19T00:39:08.111Z,0.55
2024-02-19T00:40:08.215Z,0.56
2024-02-19T00:41:08.173Z,0.55
2024-02-19T00:42:08.185Z,0.56
2024-02-19T00:43:08.253Z,0.56
2024-02-19T00:44:08.225Z,0.56
2024-02-19T00:45:08.274Z,0.56
2024-02-19T00:46:08.368Z,0.55
2024-02-19T00:47:08.299Z,0.55
2024-02-19T00:48:08.376Z,0.56
2024-02-19T00:49:08.494Z,0.55
2024-02-19T00:50:08.549Z,0.56
2024-02-19T00:51:08.439Z,0.55
2024-02-19T00:52:08.450Z,0.55
2024-02-19T00:53:08.473Z,0.54
2024-02-19T00:54:08.501Z,0.55
2024-02-19T00:55:08.705Z,0.55
2024-02-19T00:56:08.523Z,0.56
2024-02-19T00:57:08.608Z,0.56
2024-02-19T00:58:08.686Z,0.55
2024-02-19T00:59:08.654Z,0.55
2024-02-19T01:00:08.640Z,0.56
2024-02-19T01:01:08.766Z,0.55
2024-02-19T01:02:08.806Z,0.56
2024-02-19T01:03:08.748Z,0.56
2024-02-19T01:04:08.915Z,0.55
2024-02-19T01:05:08.869Z,0.56
2024-02-19T01:06:08.840Z,0.55
2024-02-19T01:07:08.899Z,0.55
2024-02-19T01:08:08.912Z,0.55
2024-02-19T01:09:08.931Z,0.56
2024-02-19T01:10:09.006Z,0.56
2024-02-19T01:11:09.010Z,0.55
2024-02-19T01:12:09.005Z,0.57
2024-02-19T01:13:09.093Z,0.56
2024-02-19T01:14:09.076Z,0.56
2024-02-19T01:15:09.105Z,0.56
2024-02-19T01:16:09.153Z,0.56
2024-02-19T01:17:09.147Z,0.56
2024-02-19T01:18:09.258Z,0.56
2024-02-19T01:19:09.276Z,0.55
2024-02-19T01:20:09.241Z,0.55
2024-02-19T01:21:09.257Z,0.55
2024-02-19T01:22:09.356Z,0.55
2024-02-19T01:23:09.328Z,0.55
2024-02-19T01:24:09.338Z,0.54
2024-02-19T01:25:09.455Z,0.55
2024-02-19T01:26:09.396Z,0.55
2024-02-19T01:27:09.450Z,0.55
2024-02-19T01:28:09.504Z,0.56
2024-02-19T01:29:09.473Z,0.55
2024-02-19T01:30:09.481Z,0.55
2024-02-19T01:31:09.568Z,0.55
2024-02-19T01:32:10.289Z,0.56
2024-02-19T01:33:09.633Z,0.54
2024-02-19T01:34:09.742Z,0.56
2024-02-19T01:35:09.936Z,0.55
2024-02-19T01:36:09.702Z,0.55
2024-02-19T01:37:10.332Z,0.55
2024-02-19T01:38:09.771Z,0.55
2024-02-19T01:39:09.767Z,0.55
2024-02-19T01:40:09.886Z,0.54
2024-02-19T01:41:09.840Z,0.56
2024-02-19T01:42:09.867Z,0.54
2024-02-19T01:43:09.957Z,0.55
2024-02-19T01:44:09.964Z,0.56
2024-02-19T01:45:10.056Z,0.55
2024-02-19T01:46:10.018Z,0.56
2024-02-19T01:47:10.023Z,0.55
2024-02-19T01:48:10.186Z,0.54
2024-02-19T01:49:10.272Z,0.56
2024-02-19T01:50:10.119Z,0.54
2024-02-19T01:51:10.125Z,0.54
2024-02-19T01:52:10.208Z,0.56
2024-02-19T01:53:10.225Z,0.56
2024-02-19T01:54:10.252Z,0.55
2024-02-19T01:55:10.313Z,0.56
2024-02-19T01:56:10.327Z,0.55
2024-02-19T01:57:10.358Z,0.55
2024-02-19T01:58:10.424Z,0.55
2024-02-19T01:59:10.435Z,0.55
2024-02-19T02:00:10.434Z,0.55
2024-02-19T02:01:10.528Z,0.54
2024-02-19T02:02:10.481Z,0.54
2024-02-19T02:03:10.643Z,0.55
2024-02-19T02:04:10.664Z,0.55
2024-02-19T02:05:10.604Z,0.55
2024-02-19T02:06:10.641Z,0.55
2024-02-19T02:07:10.703Z,0.55
2024-02-19T02:08:10.680Z,0.55
2024-02-19T02:09:10.737Z,0.55
2024-02-19T02:10:10.817Z,0.55
2024-02-19T02:11:10.888Z,0.56
2024-02-19T02:12:10.801Z,0.55
2024-02-19T02:13:10.940Z,0.55
2024-02-19T02:14:10.872Z,0.55
2024-02-19T02:15:10.922Z,0.56
2024-02-19T02:16:10.979Z,0.56
2024-02-19T02:17:10.976Z,0.56
2024-02-19T02:18:11.114Z,0.55
2024-02-19T02:19:11.116Z,0.55
2024-02-19T02:20:11.124Z,0.55
2024-02-19T02:21:11.085Z,0.56
2024-02-19T02:22:11.183Z,0.55
2024-02-19T02:23:11.202Z,0.55
2024-02-19T02:24:11.216Z,0.55
2024-02-19T02:25:11.439Z,0.56
2024-02-19T02:26:11.278Z,0.55
2024-02-19T02:27:11.336Z,0.55
2024-02-19T02:28:11.424Z,0.55
2024-02-19T02:29:11.414Z,0.56
2024-02-19T02:30:11.396Z,0.55
2024-02-19T02:31:11.532Z,0.55
2024-02-19T02:32:11.478Z,0.55
2024-02-19T02:33:11.573Z,0.55
2024-02-19T02:34:11.582Z,0.55
2024-02-19T02:35:11.581Z,0.55
2024-02-19T02:36:11.627Z,0.54
2024-02-19T02:37:12.336Z,0.55
2024-02-19T02:38:11.718Z,0.55
2024-02-19T02:39:11.695Z,0.56
2024-02-19T02:40:11.790Z,0.55
2024-02-19T02:41:11.778Z,0.56
2024-02-19T02:42:11.816Z,0.55
2024-02-19T02:43:11.914Z,0.55
2024-02-19T02:44:11.880Z,0.56
2024-02-19T02:45:11.914Z,0.55
2024-02-19T02:46:11.970Z,0.55
2024-02-19T02:47:11.959Z,0.55
2024-02-19T02:48:12.049Z,0.54
2024-02-19T02:49:12.059Z,0.55
2024-02-19T02:50:12.056Z,0.55
2024-02-19T02:51:12.113Z,0.55
2024-02-19T02:52:12.176Z,0.55
2024-02-19T02:53:12.150Z,0.55
2024-02-19T02:54:12.186Z,0.54
2024-02-19T02:55:12.346Z,0.54
2024-02-19T02:56:12.304Z,0.55
2024-02-19T02:57:12.304Z,0.55
2024-02-19T02:58:12.419Z,0.55
2024-02-19T02:59:12.401Z,0.55
2024-02-19T03:00:12.470Z,0.54
2024-02-19T03:01:12.518Z,0.55
2024-02-19T03:02:12.459Z,0.54
2024-02-19T03:03:12.488Z,0.54
2024-02-19T03:04:12.616Z,0.54
2024-02-19T03:05:12.572Z,0.55
2024-02-19T03:06:12.623Z,0.54
2024-02-19T03:07:12.708Z,0.54
2024-02-19T03:08:12.692Z,0.54
2024-02-19T03:09:12.723Z,0.54
2024-02-19T03:10:12.880Z,0.55
2024-02-19T03:11:12.793Z,0.55
2024-02-19T03:12:12.841Z,0.54
2024-02-19T03:13:12.919Z,0.56
2024-02-19T03:14:12.880Z,0.55
2024-02-19T03:15:12.891Z,0.54
2024-02-19T03:16:12.962Z,0.55
2024-02-19T03:17:12.980Z,0.54
2024-02-19T03:18:13.183Z,0.55
2024-02-19T03:19:13.150Z,0.55
2024-02-19T03:20:13.085Z,0.54
2024-02-19T03:21:13.092Z,0.55
2024-02-19T03:22:13.217Z,0.55
2024-02-19T03:23:13.200Z,0.54
2024-02-19T03:24:13.278Z,0.55
2024-02-19T03:25:13.346Z,0.54
2024-02-19T03:26:13.289Z,0.55
2024-02-19T03:27:13.336Z,0.55
2024-02-19T03:28:13.401Z,0.54
2024-02-19T03:29:14.576Z,0.55
2024-02-19T03:30:13.477Z,0.55
2024-02-19T03:31:13.508Z,0.55
2024-02-19T03:32:13.514Z,0.55
2024-02-19T03:33:13.638Z,0.55
2024-02-19T03:34:13.973Z,0.55
2024-02-19T03:35:13.708Z,0.55
2024-02-19T03:36:13.715Z,0.54
2024-02-19T03:37:13.779Z,0.55
2024-02-19T03:38:13.708Z,0.54
2024-02-19T03:39:13.730Z,0.54
2024-02-19T03:40:13.832Z,0.54
2024-02-19T03:41:13.844Z,0.55
2024-02-19T03:42:13.912Z,0.55
2024-02-19T03:43:13.962Z,0.55
2024-02-19T03:44:13.956Z,0.55
2024-02-19T03:45:13.972Z,0.54
2024-02-19T03:46:14.070Z,0.55
2024-02-19T03:47:14.019Z,0.54
2024-02-19T03:48:14.285Z,0.55
2024-02-19T03:49:14.244Z,0.55
2024-02-19T03:50:14.158Z,0.54
2024-02-19T03:51:14.197Z,0.55
2024-02-19T03:52:14.301Z,0.55
2024-02-19T03:53:14.276Z,0.54
2024-02-19T03:54:14.813Z,0.54
2024-02-19T03:55:14.399Z,0.54
2024-02-19T03:56:14.353Z,0.55
2024-02-19T03:57:14.414Z,0.54
2024-02-19T03:58:14.554Z,0.55
2024-02-19T03:59:14.493Z,0.55
2024-02-19T04:00:14.502Z,0.54
2024-02-19T04:01:14.716Z,0.55
2024-02-19T04:02:14.586Z,0.55
2024-02-19T04:03:14.637Z,0.54
2024-02-19T04:04:14.763Z,0.54
2024-02-19T04:05:14.751Z,0.55
2024-02-19T04:06:14.794Z,0.55
2024-02-19T04:07:14.803Z,0.54
2024-02-19T04:08:14.837Z,0.55
2024-02-19T04:09:14.852Z,0.55
2024-02-19T04:10:14.981Z,0.54
2024-02-19T04:11:15.022Z,0.55
2024-02-19T04:12:15.002Z,0.54
2024-02-19T04:13:15.126Z,0.55
2024-02-19T04:14:15.064Z,0.55
2024-02-19T04:15:15.140Z,0.54
2024-02-19T04:16:15.236Z,0.54
2024-02-19T04:17:15.223Z,0.55
2024-02-19T04:18:15.320Z,0.54
2024-02-19T04:19:15.344Z,0.55
2024-02-19T04:20:15.336Z,0.55
2024-02-19T04:22:58.100Z,0.50
2024-02-19T04:23:36.103Z,0.50
2024-02-19T04:24:36.156Z,0.50
2024-02-19T04:25:36.087Z,0.50
2024-02-19T04:26:36.100Z,0.50
2024-02-19T04:27:36.103Z,0.50
2024-02-19T04:28:36.116Z,0.50
2024-02-19T04:29:36.090Z,0.50
2024-02-19T04:30:36.122Z,0.50
2024-02-19T04:31:36.115Z,0.50
2024-02-19T04:32:36.193Z,0.50
2024-02-19T04:33:36.242Z,0.51
2024-02-19T04:34:39.297Z,0.50
2024-02-19T04:35:36.140Z,0.50
2024-02-19T04:36:36.110Z,0.50
2024-02-19T04:37:36.102Z,0.49
2024-02-19T04:38:36.153Z,0.49
2024-02-19T04:39:36.125Z,0.47
2024-02-19T04:40:36.119Z,0.51
2024-02-19T04:41:36.102Z,0.52
2024-02-19T04:42:36.149Z,0.50
2024-02-19T04:43:36.129Z,0.50
2024-02-19T04:44:36.127Z,0.51
2024-02-19T04:45:36.125Z,0.50
2024-02-19T04:46:36.139Z,0.50
2024-02-19T04:47:36.182Z,0.51
2024-02-19T04:48:36.193Z,0.51
2024-02-19T04:49:36.260Z,0.51
2024-02-19T04:50:36.145Z,0.51
2024-02-19T04:51:36.175Z,0.51
2024-02-19T04:52:36.146Z,0.51
2024-02-19T04:53:36.160Z,0.51
2024-02-19T04:54:36.163Z,0.52
2024-02-19T04:55:36.180Z,0.51
2024-02-19T04:56:36.175Z,0.51
2024-02-19T04:57:36.173Z,0.51
2024-02-19T04:58:36.172Z,0.52
2024-02-19T04:59:36.153Z,0.50
2024-02-19T05:00:36.198Z,0.51
2024-02-19T05:01:36.244Z,0.52
2024-02-19T05:02:36.183Z,0.51
2024-02-19T05:03:36.274Z,0.51
2024-02-19T05:04:36.402Z,0.51
2024-02-19T05:05:36.335Z,0.51
2024-02-19T05:06:36.387Z,0.51
2024-02-19T05:07:36.425Z,0.52
2024-02-19T05:08:36.433Z,0.51
2024-02-19T05:09:37.341Z,0.51
2024-02-19T05:10:36.562Z,0.51
2024-02-19T05:11:36.640Z,0.50
2024-02-19T05:12:36.638Z,0.51
2024-02-19T05:13:36.620Z,0.50
2024-02-19T05:14:36.673Z,0.51
2024-02-19T05:15:36.740Z,0.51
2024-02-19T05:16:36.750Z,0.51
2024-02-19T05:17:36.906Z,0.51
2024-02-19T05:18:36.957Z,0.51
2024-02-19T05:19:36.988Z,0.51
2024-02-19T05:20:37.015Z,0.52
2024-02-19T05:21:37.066Z,0.51
2024-02-19T05:22:37.037Z,0.51
2024-02-19T05:23:37.059Z,0.51
2024-02-19T05:24:37.195Z,0.51
2024-02-19T05:25:37.125Z,0.52
2024-02-19T05:26:37.122Z,0.52
2024-02-19T05:27:37.218Z,0.51
2024-02-19T05:28:37.244Z,0.52
2024-02-19T05:29:37.269Z,0.51
2024-02-19T05:30:37.389Z,0.52
2024-02-19T05:31:37.322Z,0.52
2024-02-19T05:32:37.400Z,0.51
2024-02-19T05:33:37.649Z,0.52
2024-02-19T05:34:37.437Z,0.51
2024-02-19T05:35:37.514Z,0.52
2024-02-19T05:36:37.536Z,0.51
2024-02-19T05:37:37.548Z,0.51
2024-02-19T05:38:39.907Z,0.52
2024-02-19T05:39:37.784Z,0.52
2024-02-19T05:40:37.839Z,0.51
2024-02-19T05:41:37.843Z,0.52
2024-02-19T05:42:37.906Z,0.51
2024-02-19T05:43:37.937Z,0.52
2024-02-19T05:44:38.001Z,0.52
2024-02-19T05:45:38.041Z,0.51
2024-02-19T05:46:38.038Z,0.52
2024-02-19T05:47:38.139Z,0.51
2024-02-19T05:48:38.275Z,0.51
2024-02-19T05:49:38.913Z,0.51
2024-02-19T05:50:38.188Z,0.51
2024-02-19T05:51:38.251Z,0.52
2024-02-19T05:52:38.277Z,0.51
2024-02-19T05:53:38.370Z,0.52
2024-02-19T05:54:38.403Z,0.51
2024-02-19T05:55:38.394Z,0.52
2024-02-19T05:56:38.428Z,0.51
2024-02-19T05:57:38.553Z,0.52
2024-02-19T05:58:38.504Z,0.51
2024-02-19T05:59:38.540Z,0.52
2024-02-19T06:00:38.720Z,0.52
2024-02-19T06:01:38.725Z,0.51
2024-02-19T06:02:38.778Z,0.52
2024-02-19T06:03:38.752Z,0.51
2024-02-19T06:04:38.813Z,0.52
2024-02-19T06:05:38.839Z,0.51
2024-02-19T06:06:38.840Z,0.51
2024-02-19T06:07:38.932Z,0.51
2024-02-19T06:08:38.896Z,0.52
2024-02-19T06:09:38.924Z,0.52
2024-02-19T06:10:38.980Z,0.52
2024-02-19T06:11:39.038Z,0.51
2024-02-19T06:12:39.128Z,0.51
2024-02-19T06:13:39.063Z,0.51
2024-02-19T06:14:39.121Z,0.51
2024-02-19T06:15:39.179Z,0.53
2024-02-19T06:16:39.198Z,0.51
2024-02-19T06:17:39.359Z,0.52
2024-02-19T06:18:39.367Z,0.52
2024-02-19T06:19:41.698Z,0.51
2024-02-19T06:20:39.346Z,0.51
2024-02-19T06:21:39.313Z,0.52
2024-02-19T06:22:39.290Z,0.52
2024-02-19T06:23:39.296Z,0.51
2024-02-19T06:24:39.364Z,0.51
2024-02-19T06:25:39.297Z,0.52
2024-02-19T06:26:39.325Z,0.50
2024-02-19T06:27:39.385Z,0.51
2024-02-19T06:28:39.292Z,0.51
2024-02-19T06:29:39.294Z,0.52
2024-02-19T06:30:39.348Z,0.52
2024-02-19T06:31:39.269Z,0.52
2024-02-19T06:32:39.299Z,0.51
2024-02-19T06:33:39.503Z,0.52
2024-02-19T06:34:41.472Z,0.51
2024-02-19T06:35:39.341Z,0.51
2024-02-19T06:36:39.404Z,0.52
2024-02-19T06:37:39.313Z,0.52
2024-02-19T06:38:39.480Z,0.52
2024-02-19T06:39:39.339Z,0.52
2024-02-19T06:40:39.342Z,0.52
2024-02-19T06:41:39.359Z,0.51
2024-02-19T06:42:39.405Z,0.51
2024-02-19T06:43:39.353Z,0.51
2024-02-19T06:44:39.335Z,0.50
2024-02-19T06:45:39.414Z,0.51
2024-02-19T06:46:39.323Z,0.51
2024-02-19T06:47:39.328Z,0.51
2024-02-19T06:48:39.402Z,0.52
2024-02-19T06:49:39.409Z,0.51
2024-02-19T06:50:39.293Z,0.52
2024-02-19T06:51:39.323Z,0.52
2024-02-19T06:52:39.314Z,0.52
2024-02-19T06:53:39.344Z,0.53
2024-02-19T06:54:39.348Z,0.53
2024-02-19T06:55:39.308Z,0.54
2024-02-19T06:56:39.528Z,0.56
2024-02-19T06:57:39.356Z,0.57
2024-02-19T06:58:39.413Z,0.58
2024-02-19T06:59:39.342Z,0.60
2024-02-19T07:00:39.493Z,0.63
2024-02-19T07:01:39.539Z,0.64
2024-02-19T07:02:39.352Z,0.66
2024-02-19T07:03:39.475Z,0.69
2024-02-19T07:04:39.459Z,0.75
2024-02-19T07:05:39.378Z,0.77
2024-02-19T07:06:39.458Z,0.81
2024-02-19T07:07:39.355Z,0.85
2024-02-19T07:08:39.354Z,0.91
2024-02-19T07:09:39.424Z,0.97
2024-02-19T07:10:39.346Z,1.01
2024-02-19T07:11:39.936Z,1.05
2024-02-19T07:12:39.378Z,1.13
2024-02-19T07:13:39.370Z,1.19
2024-02-19T07:14:39.362Z,1.27
2024-02-19T07:15:39.415Z,1.30
2024-02-19T07:16:39.412Z,1.39
2024-02-19T07:17:39.492Z,1.47
2024-02-19T07:18:39.668Z,1.56
2024-02-19T07:19:39.719Z,1.63
2024-02-19T07:20:39.631Z,1.67
2024-02-19T07:21:39.783Z,1.78
2024-02-19T07:22:39.766Z,1.82
2024-02-19T07:23:39.790Z,1.93
2024-02-19T07:24:39.855Z,1.95
2024-02-19T07:25:39.913Z,2.07
2024-02-19T07:26:39.941Z,2.08
2024-02-19T07:27:40.093Z,2.19
2024-02-19T07:28:40.030Z,2.32
2024-02-19T07:29:40.059Z,2.35
2024-02-19T07:30:40.161Z,2.48
2024-02-19T07:31:40.117Z,2.54
2024-02-19T07:32:40.337Z,2.65
2024-02-19T07:33:40.333Z,2.72
2024-02-19T07:34:42.433Z,2.84
2024-02-19T07:35:40.255Z,2.95
2024-02-19T07:36:40.290Z,3.01
2024-02-19T07:37:40.274Z,3.15
2024-02-19T07:38:40.251Z,3.26
2024-02-19T07:39:40.264Z,3.35
2024-02-19T07:40:40.357Z,3.55
2024-02-19T07:41:40.235Z,3.79
2024-02-19T07:42:40.340Z,3.89
2024-02-19T07:43:40.271Z,4.04
2024-02-19T07:44:40.272Z,4.16
2024-02-19T07:45:40.315Z,4.28
2024-02-19T07:46:40.293Z,4.50
2024-02-19T07:47:40.414Z,4.58
2024-02-19T07:48:40.478Z,4.63
2024-02-19T07:49:40.329Z,4.76
2024-02-19T07:50:40.280Z,4.88
2024-02-19T07:51:40.301Z,4.87
2024-02-19T07:52:40.271Z,4.92
2024-02-19T07:53:40.278Z,4.95
2024-02-19T07:54:40.318Z,4.97
2024-02-19T07:55:40.308Z,5.07
2024-02-19T07:56:40.301Z,5.11
2024-02-19T07:57:40.370Z,5.06
2024-02-19T07:58:40.271Z,5.04
2024-02-19T07:59:40.265Z,5.06
2024-02-19T08:00:40.389Z,5.09
2024-02-19T08:01:40.522Z,5.17
2024-02-19T08:02:40.257Z,5.11
2024-02-19T08:03:40.335Z,5.17
2024-02-19T08:04:40.381Z,5.15
2024-02-19T08:05:40.281Z,5.22
2024-02-19T08:06:40.342Z,5.25
2024-02-19T08:07:40.398Z,5.21
2024-02-19T08:08:40.325Z,5.19
2024-02-19T08:09:40.339Z,5.32
2024-02-19T08:10:40.309Z,5.30
2024-02-19T08:11:40.371Z,5.34
2024-02-19T08:12:43.210Z,5.32
2024-02-19T08:13:43.581Z,5.33
2024-02-19T08:14:40.308Z,5.33
2024-02-19T08:15:40.424Z,5.37
2024-02-19T08:16:41.948Z,5.42
2024-02-19T08:17:40.420Z,5.34
2024-02-19T08:18:40.413Z,5.40
2024-02-19T08:19:40.334Z,5.47
2024-02-19T08:20:40.315Z,5.63
2024-02-19T08:21:40.317Z,5.89
2024-02-19T08:22:41.323Z,5.84
2024-02-19T08:23:40.304Z,5.85
2024-02-19T08:24:40.452Z,5.88
2024-02-19T08:25:40.347Z,5.87
2024-02-19T08:26:40.310Z,5.92
2024-02-19T08:27:40.387Z,6.07
2024-02-19T08:28:40.373Z,6.01
2024-02-19T08:29:40.320Z,6.01
2024-02-19T08:30:40.359Z,5.98
2024-02-19T08:31:40.344Z,6.01
2024-02-19T08:32:40.370Z,6.01
2024-02-19T08:33:40.476Z,6.03
2024-02-19T08:34:40.452Z,6.01
2024-02-19T08:35:40.627Z,6.02
2024-02-19T08:36:40.382Z,6.00
2024-02-19T08:37:40.323Z,5.97
2024-02-19T08:38:40.594Z,6.00
2024-02-19T08:39:42.488Z,6.00
2024-02-19T08:40:40.516Z,6.05
2024-02-19T08:41:40.417Z,6.05
2024-02-19T08:42:40.476Z,6.14
2024-02-19T08:43:40.488Z,6.06
2024-02-19T08:44:40.475Z,5.77
2024-02-19T08:45:40.586Z,5.61
2024-02-19T08:46:40.498Z,5.48
2024-02-19T08:47:40.586Z,5.19
2024-02-19T08:48:40.734Z,5.00
2024-02-19T08:49:40.671Z,4.73
2024-02-19T08:50:47.933Z,0.50
2024-02-19T08:51:47.933Z,0.50
2024-02-19T08:52:47.893Z,0.50
2024-02-19T08:53:53.637Z,0.50
2024-02-19T08:54:48.958Z,0.50
2024-02-19T08:55:47.961Z,0.50
2024-02-19T08:56:47.919Z,0.50
2024-02-19T08:57:47.937Z,0.50
2024-02-19T08:58:47.889Z,0.50
2024-02-19T08:59:47.902Z,0.50
2024-02-19T09:00:48.028Z,0.51
2024-02-19T09:01:48.011Z,0.50
2024-02-19T09:02:47.957Z,0.50
2024-02-19T09:03:48.013Z,0.50
2024-02-19T09:04:48.069Z,0.50
2024-02-19T09:05:47.959Z,0.51
2024-02-19T09:06:47.958Z,0.50
2024-02-19T09:07:47.945Z,0.50
2024-02-19T09:08:47.907Z,0.52
2024-02-19T09:09:47.951Z,0.50
2024-02-19T09:10:47.975Z,0.49
2024-02-19T09:11:48.044Z,0.51
2024-02-19T09:12:47.952Z,0.50
2024-02-19T09:13:48.013Z,0.50
2024-02-19T09:14:48.010Z,0.50
2024-02-19T09:15:48.045Z,0.50
2024-02-19T09:16:48.015Z,0.51
2024-02-19T09:17:48.105Z,0.50
2024-02-19T09:18:48.169Z,0.50
2024-02-19T09:19:48.194Z,0.50
2024-02-19T09:20:48.135Z,0.51
2024-02-19T09:21:48.151Z,0.50
2024-02-19T09:22:48.179Z,0.50
2024-02-19T09:23:48.223Z,0.51
2024-02-19T09:24:48.254Z,0.50
2024-02-19T09:25:48.282Z,0.50
2024-02-19T09:26:48.249Z,0.51
2024-02-19T09:27:48.315Z,0.50
2024-02-19T09:28:48.378Z,0.50
2024-02-19T09:29:48.350Z,0.50
2024-02-19T09:30:48.451Z,0.50
2024-02-19T09:31:48.431Z,0.50
2024-02-19T09:32:48.556Z,0.50
2024-02-19T09:33:48.608Z,0.50
2024-02-19T09:34:48.635Z,0.50
2024-02-19T09:35:48.506Z,0.50
2024-02-19T09:36:48.595Z,0.50
2024-02-19T09:37:48.572Z,0.51
2024-02-19T09:38:48.571Z,0.51
2024-02-19T09:39:48.604Z,0.50
2024-02-19T09:40:48.713Z,0.51
2024-02-19T09:41:48.778Z,0.50
2024-02-19T09:42:48.955Z,0.50
2024-02-19T09:43:48.715Z,0.50
2024-02-19T09:44:48.720Z,0.51
2024-02-19T09:45:48.762Z,0.51
2024-02-19T09:46:48.731Z,0.50
2024-02-19T09:47:48.808Z,0.51
2024-02-19T09:48:48.952Z,0.50
2024-02-19T09:49:48.939Z,0.50
2024-02-19T09:50:48.804Z,0.50
2024-02-19T09:51:48.914Z,0.51
2024-02-19T09:52:48.936Z,0.50
2024-02-19T09:53:48.915Z,0.50
2024-02-19T09:54:48.975Z,0.50
2024-02-19T09:55:48.960Z,0.50
2024-02-19T09:56:49.016Z,0.51
2024-02-19T09:57:49.028Z,0.51
2024-02-19T09:58:49.066Z,0.51
2024-02-19T09:59:49.191Z,0.50
2024-02-19T10:00:49.198Z,0.50
2024-02-19T10:01:49.299Z,0.50
2024-02-19T10:02:49.197Z,0.50
2024-02-19T10:03:49.232Z,0.52
2024-02-19T10:04:49.600Z,0.51
2024-02-19T10:05:50.900Z,0.51
2024-02-19T10:06:49.750Z,0.52
2024-02-19T10:07:49.388Z,0.50
2024-02-19T10:08:49.405Z,0.51
2024-02-19T10:09:49.460Z,0.50
2024-02-19T10:10:49.452Z,0.50
2024-02-19T10:11:49.505Z,0.51
2024-02-19T10:12:49.559Z,0.51
2024-02-19T10:13:49.536Z,0.51
2024-02-19T10:14:49.580Z,0.51
2024-02-19T10:15:49.658Z,0.50
2024-02-19T10:16:49.600Z,0.51
2024-02-19T10:17:49.732Z,0.50
2024-02-19T10:18:49.825Z,0.50
2024-02-19T10:19:49.755Z,0.50
2024-02-19T10:20:49.732Z,0.50
2024-02-19T10:22:49.813Z,0.50
2024-02-19T10:23:49.846Z,0.51
2024-02-19T10:24:49.875Z,0.52
2024-02-19T10:25:49.976Z,0.50
2024-02-19T10:26:49.954Z,0.50
2024-02-19T10:27:50.053Z,0.51
2024-02-19T10:28:50.055Z,0.50
2024-02-19T10:29:50.050Z,0.51
2024-02-19T10:30:50.161Z,0.53
2024-02-19T10:31:50.129Z,0.66
2024-02-19T10:32:50.248Z,0.57
2024-02-19T10:33:50.424Z,0.52
2024-02-19T10:34:50.294Z,0.50
2024-02-19T10:35:50.334Z,0.54
2024-02-19T10:36:50.446Z,0.54
2024-02-19T10:37:50.451Z,0.50
2024-02-19T10:38:50.563Z,0.50
2024-02-19T10:39:50.647Z,0.56
2024-02-19T10:40:50.897Z,0.60
2024-02-19T10:41:50.706Z,0.66
2024-02-19T10:42:50.770Z,0.74
2024-02-19T10:43:50.784Z,0.83
2024-02-19T10:44:50.773Z,0.89
2024-02-19T10:45:50.858Z,0.93
2024-02-19T10:46:50.809Z,0.97
2024-02-19T10:47:50.904Z,1.00
2024-02-19T10:48:51.049Z,1.07
2024-02-19T10:49:50.921Z,1.10
2024-02-19T10:50:50.932Z,1.12
2024-02-19T10:51:50.890Z,1.17
2024-02-19T10:52:50.934Z,1.19
2024-02-19T10:53:50.945Z,1.24
2024-02-19T10:54:58.368Z,1.23
2024-02-19T10:55:55.768Z,1.24
2024-02-19T10:56:52.054Z,1.24
2024-02-19T10:57:51.147Z,1.25
2024-02-19T10:58:51.004Z,1.29
2024-02-19T10:59:51.023Z,1.33
2024-02-19T11:00:51.030Z,1.39
2024-02-19T11:01:51.513Z,1.44
2024-02-19T11:02:51.006Z,1.46
2024-02-19T11:03:51.189Z,1.48
2024-02-19T11:04:51.023Z,1.50
2024-02-19T11:05:51.052Z,1.50
2024-02-19T11:06:51.050Z,1.48
2024-02-19T11:07:51.005Z,1.54
2024-02-19T11:08:51.067Z,1.58
2024-02-19T11:09:51.088Z,1.53
2024-02-19T11:10:51.282Z,1.60
2024-02-19T11:11:51.028Z,1.57
2024-02-19T11:12:51.030Z,1.59
2024-02-19T11:13:51.029Z,1.58
2024-02-19T11:14:51.020Z,1.58
2024-02-19T11:15:51.066Z,1.63
2024-02-19T11:16:50.995Z,1.64
2024-02-19T11:17:51.041Z,1.61
2024-02-19T11:18:54.628Z,1.62
2024-02-19T11:19:51.087Z,1.62
2024-02-19T11:20:51.080Z,1.63
2024-02-19T11:21:51.123Z,1.64
2024-02-19T11:22:51.081Z,1.65
2024-02-19T11:23:51.029Z,1.68
2024-02-19T11:24:51.051Z,1.67
2024-02-19T11:25:51.004Z,1.70
2024-02-19T11:26:51.888Z,1.70
2024-02-19T11:27:51.043Z,1.70
2024-02-19T11:28:51.037Z,1.71
2024-02-19T11:29:51.035Z,1.71
2024-02-19T11:30:51.050Z,1.70
2024-02-19T11:31:51.058Z,1.69
2024-02-19T11:32:51.064Z,1.74
2024-02-19T11:33:51.063Z,1.70
2024-02-19T11:34:51.736Z,1.72
2024-02-19T11:35:51.097Z,1.74
2024-02-19T11:36:51.087Z,1.72
2024-02-19T11:37:51.046Z,1.70
2024-02-19T11:38:51.102Z,1.73
2024-02-19T11:39:51.031Z,1.73
2024-02-19T11:40:51.135Z,1.73
2024-02-19T11:41:51.121Z,1.72
2024-02-19T11:42:51.312Z,1.72
2024-02-19T11:43:51.187Z,1.74
2024-02-19T11:44:51.250Z,1.74
2024-02-19T11:45:51.261Z,1.78
2024-02-19T11:46:51.274Z,1.75
2024-02-19T11:47:51.376Z,1.75
2024-02-19T11:48:51.457Z,1.79
2024-02-19T11:49:51.454Z,1.76
2024-02-19T11:50:51.388Z,1.79
2024-02-19T11:51:57.709Z,1.80
2024-02-19T11:52:52.449Z,1.80
2024-02-19T11:53:51.411Z,1.80
2024-02-19T11:54:51.427Z,1.82
2024-02-19T11:55:51.433Z,1.85
2024-02-19T11:56:51.396Z,1.95
2024-02-19T11:57:51.413Z,2.40
2024-02-19T11:58:51.443Z,2.46
2024-02-19T11:59:51.405Z,2.55
2024-02-19T12:00:51.523Z,2.62
2024-02-19T12:01:51.489Z,2.73
2024-02-19T12:02:51.398Z,2.77
2024-02-19T12:03:51.451Z,2.90
2024-02-19T12:04:51.416Z,3.06
2024-02-19T12:05:51.444Z,3.15
2024-02-19T12:06:51.448Z,3.29
2024-02-19T12:07:51.533Z,3.42
2024-02-19T12:08:51.459Z,3.51
2024-02-19T12:09:51.567Z,3.59
2024-02-19T12:10:51.618Z,3.84
2024-02-19T12:11:51.642Z,4.04
2024-02-19T12:12:51.734Z,4.16
2024-02-19T12:13:51.790Z,4.35
2024-02-19T12:14:51.835Z,4.60
2024-02-19T12:15:51.981Z,4.80
2024-02-19T12:16:51.968Z,4.96
2024-02-19T12:17:52.043Z,4.96
2024-02-19T12:18:52.172Z,5.20
2024-02-19T12:19:56.551Z,5.37
2024-02-19T12:20:52.151Z,5.37
2024-02-19T12:21:52.192Z,5.42
2024-02-19T12:22:52.100Z,5.46
2024-02-19T12:23:52.113Z,5.65
2024-02-19T12:24:52.188Z,5.89
2024-02-19T12:25:52.158Z,6.06
2024-02-19T12:26:52.135Z,6.09
2024-02-19T12:27:52.157Z,6.18
2024-02-19T12:28:52.130Z,6.27
2024-02-19T12:29:52.126Z,6.46
2024-02-19T12:30:52.172Z,6.51
2024-02-19T12:31:52.136Z,6.59
2024-02-19T12:32:52.482Z,6.57
2024-02-19T12:33:52.428Z,6.75
2024-02-19T12:34:52.420Z,7.02
2024-02-19T12:35:52.373Z,6.98
2024-02-19T12:36:52.322Z,7.08
2024-02-19T12:37:52.369Z,7.41
2024-02-19T12:38:52.344Z,7.36
2024-02-19T12:39:52.458Z,7.40
2024-02-19T12:40:52.436Z,7.14
2024-02-19T12:41:52.535Z,6.87
2024-02-19T12:42:52.606Z,6.69
2024-02-19T12:43:52.676Z,6.75
2024-02-19T12:44:52.755Z,6.50
2024-02-19T12:45:52.852Z,6.48
2024-02-19T12:46:52.857Z,6.47
2024-02-19T12:47:52.967Z,6.40
2024-02-19T12:48:53.170Z,6.23
2024-02-19T12:49:53.160Z,6.30
2024-02-19T12:50:53.100Z,6.32
2024-02-19T12:51:53.220Z,6.21
2024-02-19T12:52:53.232Z,6.15
2024-02-19T12:53:53.281Z,6.02
2024-02-19T12:54:53.344Z,6.01
2024-02-19T12:55:53.455Z,6.12
2024-02-19T12:56:53.426Z,6.12
2024-02-19T12:57:53.547Z,5.75
2024-02-19T12:58:53.578Z,5.87
2024-02-19T12:59:53.667Z,6.03
2024-02-19T13:00:53.830Z,5.80
2024-02-19T13:01:53.860Z,5.78
2024-02-19T13:02:54.013Z,5.73
2024-02-19T13:03:53.941Z,5.60
2024-02-19T13:04:54.146Z,5.62
2024-02-19T13:05:54.174Z,5.53
2024-02-19T13:06:54.252Z,5.56
2024-02-19T13:07:54.249Z,5.48
2024-02-19T13:08:54.236Z,5.42
2024-02-19T13:09:54.337Z,5.40
2024-02-19T13:10:54.330Z,5.42
2024-02-19T13:11:54.448Z,5.25
2024-02-19T13:12:54.468Z,5.07
2024-02-19T13:13:54.537Z,4.88
2024-02-19T13:14:54.590Z,4.54
2024-02-19T13:15:54.659Z,4.47
2024-02-19T13:17:02.807Z,4.32
2024-02-19T13:17:55.674Z,4.28
2024-02-19T13:18:54.711Z,4.08
2024-02-19T13:19:54.832Z,3.91
2024-02-19T13:20:57.642Z,3.84